createdAt,value
2023-03-18T00:00:11.367Z,39.97
2023-03-18T00:02:40.277Z,28.13
2023-03-18T00:05:08.128Z,28.90
2023-03-18T00:07:36.261Z,36.33
2023-03-18T00:10:04.920Z,39.90
2023-03-18T00:12:33.177Z,27.88
2023-03-18T00:14:59.797Z,30.00
2023-03-18T00:17:26.524Z,33.20
2023-03-18T00:19:52.980Z,30.25
2023-03-18T00:22:19.385Z,36.30
2023-03-18T00:24:46.456Z,33.83
2023-03-18T00:27:12.886Z,29.73
2023-03-18T00:29:40.019Z,31.60
2023-03-18T00:32:06.813Z,34.83
2023-03-18T00:34:33.500Z,38.17
2023-03-18T00:37:00.243Z,37.78
2023-03-18T00:39:28.944Z,32.28
2023-03-18T00:41:56.840Z,29.83
2023-03-18T00:44:25.268Z,21.33
2023-03-18T00:46:52.187Z,36.33
2023-03-18T00:49:19.870Z,32.47
2023-03-18T00:51:47.695Z,42.28
2023-03-18T00:54:17.985Z,34.35
2023-03-18T00:56:44.590Z,23.92
2023-03-18T00:59:11.828Z,27.70
2023-03-18T01:01:39.033Z,26.60
2023-03-18T01:04:06.634Z,28.08
2023-03-18T01:06:35.272Z,26.08
2023-03-18T01:09:04.645Z,32.35
2023-03-18T01:11:31.186Z,25.75
2023-03-18T01:13:59.455Z,24.73
2023-03-18T01:16:26.505Z,29.27
2023-03-18T01:18:53.788Z,32.58
2023-03-18T01:21:20.431Z,26.50
2023-03-18T01:23:47.030Z,31.00
2023-03-18T01:26:14.020Z,29.75
2023-03-18T01:28:41.237Z,26.10
2023-03-18T01:31:08.184Z,32.03
2023-03-18T01:33:35.659Z,28.42
2023-03-18T01:36:03.977Z,26.67
2023-03-18T01:38:31.031Z,27.75
2023-03-18T01:40:59.245Z,37.53
2023-03-18T01:43:33.950Z,33.17
2023-03-18T01:46:02.669Z,42.70
2023-03-18T01:48:35.537Z,35.40
2023-03-18T01:51:06.296Z,33.30
2023-03-18T01:53:39.992Z,31.55
2023-03-18T01:56:08.982Z,24.25
2023-03-18T01:59:01.837Z,31.50
2023-03-18T02:01:34.682Z,27.25
2023-03-18T02:04:04.401Z,28.88
2023-03-18T02:06:31.869Z,28.80
2023-03-18T02:08:58.344Z,27.92
2023-03-18T02:13:50.727Z,35.78
2023-03-18T02:16:20.247Z,31.25
2023-03-18T02:19:15.936Z,27.48
2023-03-18T02:21:56.647Z,22.95
2023-03-18T02:24:49.617Z,33.37
2023-03-18T02:27:38.746Z,31.95
2023-03-18T02:30:10.294Z,26.55
2023-03-18T02:35:07.493Z,30.83
2023-03-18T02:37:33.906Z,36.47
2023-03-18T02:40:24.694Z,26.48
2023-03-18T02:42:52.300Z,28.00
2023-03-18T02:45:35.536Z,38.42
2023-03-18T02:48:07.115Z,28.63
2023-03-18T02:53:04.210Z,29.52
2023-03-18T02:55:30.985Z,27.75
2023-03-18T02:57:57.474Z,34.50
2023-03-18T03:00:24.137Z,27.48
2023-03-18T03:02:50.767Z,26.30
2023-03-18T03:05:17.477Z,31.10
2023-03-18T03:07:43.930Z,38.45
2023-03-18T03:10:11.329Z,36.83
2023-03-18T03:12:37.871Z,43.40
2023-03-18T03:15:07.032Z,40.70
2023-03-18T03:17:33.709Z,54.50
2023-03-18T03:20:00.308Z,29.73
2023-03-18T03:22:27.332Z,33.22
2023-03-18T03:24:54.238Z,30.67
2023-03-18T03:27:20.720Z,27.00
2023-03-18T03:29:47.206Z,28.77
2023-03-18T03:32:13.729Z,33.28
2023-03-18T03:34:40.141Z,22.88
2023-03-18T03:37:07.103Z,22.92
2023-03-18T03:39:33.890Z,30.00
2023-03-18T03:42:00.756Z,25.95
2023-03-18T03:44:27.189Z,25.23
2023-03-18T03:46:53.663Z,23.17
2023-03-18T03:49:20.133Z,21.35
2023-03-18T03:51:46.620Z,26.75
2023-03-18T03:54:15.720Z,33.22
2023-03-18T03:56:42.982Z,28.65
2023-03-18T03:59:10.205Z,22.83
2023-03-18T04:01:36.855Z,22.88
2023-03-18T04:04:04.006Z,31.38
2023-03-18T04:06:31.056Z,26.83
2023-03-18T04:08:57.509Z,29.90
2023-03-18T04:11:24.240Z,23.83
2023-03-18T04:13:50.741Z,27.08
2023-03-18T04:16:17.336Z,26.20
2023-03-18T04:18:44.044Z,27.23
2023-03-18T04:21:10.636Z,28.58
2023-03-18T04:23:37.362Z,26.80
2023-03-18T04:26:05.303Z,29.95
2023-03-18T04:28:31.855Z,29.70
2023-03-18T04:30:58.455Z,32.53
2023-03-18T04:33:24.893Z,26.83
2023-03-18T04:35:52.647Z,24.58
2023-03-18T04:38:19.388Z,27.27
2023-03-18T04:40:47.574Z,30.77
2023-03-18T04:43:14.017Z,31.42
2023-03-18T04:45:40.464Z,27.77
2023-03-18T04:48:07.137Z,31.90
2023-03-18T04:50:34.376Z,30.92
2023-03-18T04:53:00.824Z,25.58
2023-03-18T04:55:27.302Z,32.28
2023-03-18T04:57:54.536Z,25.98
2023-03-18T05:00:22.361Z,29.23
2023-03-18T05:02:49.386Z,34.28
2023-03-18T05:05:15.924Z,26.45
2023-03-18T05:07:43.435Z,30.63
2023-03-18T05:10:10.737Z,31.45
2023-03-18T05:12:38.023Z,29.75
2023-03-18T05:15:06.432Z,31.38
2023-03-18T05:17:32.879Z,33.45
2023-03-18T05:19:59.571Z,31.35
2023-03-18T05:22:26.449Z,27.10
2023-03-18T05:24:53.503Z,31.85
2023-03-18T05:27:20.861Z,28.60
2023-03-18T05:29:48.297Z,29.70
2023-03-18T05:32:15.624Z,30.33
2023-03-18T05:34:43.442Z,31.67
2023-03-18T05:37:12.638Z,32.05
2023-03-18T05:39:39.822Z,29.42
2023-03-18T05:42:07.065Z,32.13
2023-03-18T05:44:34.070Z,32.60
2023-03-18T05:47:01.707Z,34.60
2023-03-18T05:49:28.480Z,29.05
2023-03-18T05:51:55.933Z,32.60
2023-03-18T05:54:22.681Z,34.67
2023-03-18T05:56:52.689Z,32.90
2023-03-18T05:59:24.474Z,30.83
2023-03-18T06:01:52.805Z,34.47
2023-03-18T06:04:19.939Z,29.98
2023-03-18T06:06:48.611Z,27.90
2023-03-18T06:09:15.839Z,34.67
2023-03-18T06:11:42.402Z,31.25
2023-03-18T06:14:12.624Z,38.42
2023-03-18T06:16:40.304Z,38.73
2023-03-18T06:19:07.861Z,36.10
2023-03-18T06:21:34.880Z,40.33
2023-03-18T06:24:02.365Z,36.20
2023-03-18T06:26:29.152Z,37.95
2023-03-18T06:28:56.586Z,36.92
2023-03-18T06:31:24.206Z,35.92
2023-03-18T06:33:50.898Z,33.40
2023-03-18T06:36:17.970Z,37.97
2023-03-18T06:38:45.084Z,27.88
2023-03-18T06:41:16.295Z,30.27
2023-03-18T06:43:43.492Z,29.05
2023-03-18T06:46:10.703Z,30.80
2023-03-18T06:48:40.475Z,31.05
2023-03-18T06:51:07.884Z,31.23
2023-03-18T06:53:36.571Z,32.72
2023-03-18T06:56:06.745Z,30.73
2023-03-18T06:58:36.158Z,35.47
2023-03-18T07:01:05.666Z,35.67
2023-03-18T07:03:33.262Z,36.45
2023-03-18T07:06:02.642Z,30.52
2023-03-18T07:08:29.325Z,31.92
2023-03-18T07:10:59.495Z,33.83
2023-03-18T07:13:26.175Z,41.40
2023-03-18T07:15:59.277Z,30.42
2023-03-18T07:18:27.218Z,32.58
2023-03-18T07:20:54.569Z,45.30
2023-03-18T07:23:21.966Z,44.83
2023-03-18T07:25:48.480Z,37.65
2023-03-18T07:28:15.440Z,40.13
2023-03-18T07:30:42.594Z,28.75
2023-03-18T07:33:09.667Z,35.63
2023-03-18T07:35:38.078Z,37.38
2023-03-18T07:38:05.398Z,39.40
2023-03-18T07:40:32.534Z,36.05
2023-03-18T07:42:59.166Z,33.70
2023-03-18T07:45:28.963Z,30.83
2023-03-18T07:47:55.380Z,32.47
2023-03-18T07:50:22.719Z,30.83
2023-03-18T07:52:50.351Z,30.13
2023-03-18T07:56:03.999Z,30.75
2023-03-18T07:58:30.545Z,40.67
2023-03-18T08:00:57.634Z,32.95
2023-03-18T08:03:24.751Z,28.48
2023-03-18T08:05:51.563Z,37.22
2023-03-18T08:08:18.372Z,31.52
2023-03-18T08:10:45.188Z,35.85
2023-03-18T08:13:13.269Z,33.90
2023-03-18T08:15:41.057Z,32.70
2023-03-18T08:18:09.399Z,34.42
2023-03-18T08:20:36.338Z,36.05
2023-03-18T08:23:04.351Z,36.92
2023-03-18T08:25:31.802Z,32.22
2023-03-18T08:27:58.808Z,29.92
2023-03-18T08:30:28.684Z,31.83
2023-03-18T08:32:56.270Z,33.70
2023-03-18T08:35:25.891Z,27.25
2023-03-18T08:37:53.827Z,31.25
2023-03-18T08:40:21.207Z,37.05
2023-03-18T08:42:49.084Z,34.40
2023-03-18T08:45:16.513Z,30.15
2023-03-18T08:47:44.304Z,28.73
2023-03-18T08:50:12.314Z,36.83
2023-03-18T08:52:39.956Z,29.30
2023-03-18T08:55:08.345Z,28.38
2023-03-18T08:57:35.586Z,28.02
2023-03-18T09:00:02.537Z,29.70
2023-03-18T09:02:29.964Z,27.42
2023-03-18T09:04:56.647Z,26.85
2023-03-18T09:07:23.508Z,32.08
2023-03-18T09:09:50.665Z,29.40
2023-03-18T09:12:18.578Z,31.25
2023-03-18T09:14:45.487Z,36.65
2023-03-18T09:17:12.799Z,32.75
2023-03-18T09:19:39.557Z,30.80
2023-03-18T09:22:06.929Z,27.98
2023-03-18T09:24:33.492Z,34.22
2023-03-18T09:27:00.623Z,29.75
2023-03-18T09:29:28.075Z,32.42
2023-03-18T09:31:57.061Z,27.38
2023-03-18T09:34:23.836Z,28.90
2023-03-18T09:36:53.750Z,25.35
2023-03-18T09:39:24.506Z,26.58
2023-03-18T09:42:48.624Z,28.90
2023-03-18T09:45:24.808Z,29.98
2023-03-18T09:48:01.143Z,23.83
2023-03-18T09:51:04.612Z,23.83
2023-03-18T09:53:42.926Z,26.27
2023-03-18T09:56:17.891Z,21.33
2023-03-18T09:59:16.055Z,21.88
2023-03-18T10:01:45.853Z,22.95
2023-03-18T10:04:39.166Z,22.88
2023-03-18T10:07:16.925Z,26.83
2023-03-18T10:09:47.279Z,27.10
2023-03-18T10:12:14.033Z,22.90
2023-03-18T10:14:51.515Z,22.05
2023-03-18T10:17:25.408Z,21.02
2023-03-18T10:19:57.729Z,20.10
2023-03-18T10:22:24.614Z,21.27
2023-03-18T10:25:01.568Z,18.75
2023-03-18T10:27:49.701Z,25.23
2023-03-18T10:30:43.886Z,19.23
2023-03-18T10:33:32.614Z,20.92
2023-03-18T10:36:18.434Z,21.60
2023-03-18T10:38:48.794Z,24.17
2023-03-18T10:41:25.411Z,16.63
2023-03-18T10:43:55.900Z,18.55
2023-03-18T10:46:25.837Z,21.70
2023-03-18T10:49:15.347Z,18.90
2023-03-18T10:51:53.364Z,21.80
2023-03-18T10:54:39.734Z,19.25
2023-03-18T10:57:06.954Z,20.23
2023-03-18T10:59:37.997Z,24.42
2023-03-18T11:02:14.088Z,17.73
2023-03-18T11:04:52.397Z,23.88
2023-03-18T11:07:26.243Z,21.27
2023-03-18T11:09:54.302Z,21.90
2023-03-18T11:12:27.181Z,19.83
2023-03-18T11:14:55.067Z,21.55
2023-03-18T11:17:23.665Z,22.80
2023-03-18T11:20:02.576Z,20.67
2023-03-18T11:22:30.582Z,19.13
2023-03-18T11:25:16.864Z,20.45
2023-03-18T11:27:43.488Z,18.65
2023-03-18T11:30:40.691Z,19.85
2023-03-18T11:33:10.298Z,16.63
2023-03-18T11:36:05.024Z,17.42
2023-03-18T11:38:37.383Z,20.60
2023-03-18T11:41:17.236Z,20.15
2023-03-18T11:43:59.986Z,23.25
2023-03-18T11:46:32.815Z,20.15
2023-03-18T11:49:00.817Z,22.13
2023-03-18T11:51:55.099Z,21.88
2023-03-18T11:54:51.341Z,27.60
2023-03-18T11:57:32.384Z,20.83
2023-03-18T12:00:01.714Z,20.45
2023-03-18T12:02:57.948Z,26.08
2023-03-18T12:05:52.438Z,18.98
2023-03-18T12:08:31.674Z,19.83
2023-03-18T12:11:13.166Z,24.58
2023-03-18T12:13:59.130Z,22.75
2023-03-18T12:16:39.891Z,19.40
2023-03-18T12:19:27.637Z,19.63
2023-03-18T12:22:15.627Z,20.95
2023-03-18T12:24:52.588Z,23.23
2023-03-18T12:27:22.385Z,20.17
2023-03-18T12:30:19.892Z,24.17
2023-03-18T12:33:00.223Z,20.17
2023-03-18T12:35:47.290Z,21.93
2023-03-18T12:38:16.992Z,22.92
2023-03-18T12:41:10.877Z,20.95
2023-03-18T12:43:58.786Z,19.25
2023-03-18T12:46:59.917Z,21.40
2023-03-18T12:49:36.513Z,23.10
2023-03-18T12:52:33.404Z,18.73
2023-03-18T12:55:07.696Z,19.27
2023-03-18T12:57:58.218Z,22.73
2023-03-18T13:00:31.576Z,23.47
2023-03-18T13:03:07.377Z,22.27
2023-03-18T13:05:43.222Z,22.30
2023-03-18T13:08:41.887Z,24.42
2023-03-18T13:11:18.134Z,23.08
2023-03-18T13:13:52.524Z,18.42
2023-03-18T13:16:21.489Z,19.38
2023-03-18T13:18:56.074Z,22.10
2023-03-18T13:21:29.785Z,16.55
2023-03-18T13:24:16.279Z,24.23
2023-03-18T13:26:53.909Z,20.05
2023-03-18T13:29:55.942Z,17.45
2023-03-18T13:32:42.072Z,19.58
2023-03-18T13:35:28.361Z,22.42
2023-03-18T13:38:25.269Z,20.13
2023-03-18T13:41:04.430Z,21.58
2023-03-18T13:43:34.093Z,16.20
2023-03-18T13:46:02.290Z,20.98
2023-03-18T13:48:36.485Z,16.95
2023-03-18T13:51:36.741Z,19.40
2023-03-18T13:54:07.019Z,16.98
2023-03-18T13:56:48.570Z,24.17
2023-03-18T13:59:33.776Z,16.88
2023-03-18T14:02:28.429Z,19.02
2023-03-18T14:04:58.459Z,16.92
2023-03-18T14:07:26.311Z,19.42
2023-03-18T14:10:17.751Z,22.20
2023-03-18T14:12:49.688Z,22.33
2023-03-18T14:15:16.982Z,19.60
2023-03-18T14:17:54.569Z,21.42
2023-03-18T14:20:39.423Z,19.40
2023-03-18T14:23:21.463Z,19.98
2023-03-18T14:26:04.823Z,18.77
2023-03-18T14:28:45.026Z,20.05
2023-03-18T14:31:34.881Z,23.17
2023-03-18T14:34:04.547Z,25.33
2023-03-18T14:37:00.232Z,21.67
2023-03-18T14:39:41.173Z,19.20
2023-03-18T14:42:31.879Z,20.02
2023-03-18T14:45:18.052Z,17.48
2023-03-18T14:48:11.982Z,16.80
2023-03-18T14:50:47.449Z,14.25
2023-03-18T14:53:51.405Z,16.70
2023-03-18T14:56:24.284Z,17.35
2023-03-18T14:58:54.270Z,14.98
2023-03-18T15:02:14.359Z,16.60
2023-03-18T15:04:52.614Z,28.25
2023-03-18T15:07:19.142Z,16.30
2023-03-18T15:09:49.760Z,13.52
2023-03-18T15:16:05.076Z,13.18
2023-03-18T15:18:37.508Z,11.23
2023-03-18T15:21:18.940Z,10.90
2023-03-18T15:23:52.102Z,16.15
2023-03-18T15:26:37.847Z,12.45
2023-03-18T15:29:25.672Z,13.43
2023-03-18T15:31:53.789Z,15.40
2023-03-18T15:34:30.945Z,12.88
2023-03-18T15:37:02.457Z,21.77
2023-03-18T15:39:36.304Z,13.80
2023-03-18T15:42:15.179Z,14.30
2023-03-18T15:44:45.838Z,11.70
2023-03-18T15:49:58.070Z,20.60
2023-03-18T15:52:28.538Z,11.40
2023-03-18T15:54:56.175Z,19.08
2023-03-18T15:57:43.787Z,13.15
2023-03-18T16:00:14.233Z,14.55
2023-03-18T16:02:42.451Z,16.17
2023-03-18T16:05:20.468Z,16.23
2023-03-18T16:07:49.509Z,16.05
2023-03-18T16:10:20.634Z,17.92
2023-03-18T16:15:21.945Z,14.00
2023-03-18T16:17:53.589Z,13.20
2023-03-18T16:20:31.622Z,14.63
2023-03-18T16:22:59.742Z,15.30
2023-03-18T16:25:26.958Z,20.38
2023-03-18T16:27:59.746Z,16.70
2023-03-18T16:30:29.555Z,30.05
2023-03-18T16:32:57.188Z,17.90
2023-03-18T16:35:26.370Z,18.48
2023-03-18T16:37:53.375Z,18.23
2023-03-18T16:40:27.210Z,16.85
2023-03-18T16:42:54.555Z,21.50
2023-03-18T16:45:30.249Z,13.68
2023-03-18T16:47:59.879Z,17.25
2023-03-18T16:50:34.716Z,16.27
2023-03-18T16:53:03.144Z,17.90
2023-03-18T16:55:29.892Z,13.70
2023-03-18T16:57:59.553Z,17.45
2023-03-18T17:00:32.877Z,16.85
2023-03-18T17:03:00.450Z,13.35
2023-03-18T17:05:31.540Z,19.30
2023-03-18T17:10:27.581Z,18.75
2023-03-18T17:13:00.291Z,17.92
2023-03-18T17:15:33.016Z,16.08
2023-03-18T17:18:00.484Z,21.63
2023-03-18T17:20:30.326Z,18.80
2023-03-18T17:22:56.896Z,15.98
2023-03-18T17:25:27.209Z,24.67
2023-03-18T17:27:54.655Z,19.43
2023-03-18T17:30:24.179Z,27.23
2023-03-18T17:32:51.501Z,21.25
2023-03-18T17:35:21.152Z,15.88
2023-03-18T17:37:48.772Z,26.38
2023-03-18T17:40:17.618Z,33.95
2023-03-18T17:42:47.099Z,44.28
2023-03-18T17:45:29.614Z,46.10
2023-03-18T17:48:15.695Z,36.78
2023-03-18T17:50:44.185Z,30.42
2023-03-18T17:53:22.428Z,25.05
2023-03-18T17:55:48.845Z,25.92
2023-03-18T17:58:20.486Z,30.85
2023-03-18T18:00:47.961Z,28.80
2023-03-18T18:03:27.366Z,32.10
2023-03-18T18:05:55.928Z,23.85
2023-03-18T18:08:25.149Z,32.63
2023-03-18T18:10:54.367Z,27.73
2023-03-18T18:13:22.884Z,24.25
2023-03-18T18:15:50.868Z,26.45
2023-03-18T18:18:25.551Z,34.85
2023-03-18T18:20:57.876Z,34.63
2023-03-18T18:23:36.007Z,43.08
2023-03-18T18:26:12.176Z,33.45
2023-03-18T18:28:41.017Z,49.92
2023-03-18T18:31:10.048Z,36.38
2023-03-18T18:33:38.471Z,36.03
2023-03-18T18:36:06.459Z,40.72
2023-03-18T18:38:33.008Z,31.83
2023-03-18T18:41:00.093Z,38.35
2023-03-18T18:43:27.423Z,33.97
2023-03-18T18:45:56.032Z,35.47
2023-03-18T18:48:44.324Z,60.20
2023-03-18T18:51:18.485Z,46.88
2023-03-18T18:53:45.933Z,46.20
2023-03-18T18:56:15.850Z,37.38
2023-03-18T18:58:42.384Z,41.53
2023-03-18T19:01:09.007Z,36.03
2023-03-18T19:03:35.740Z,39.33
2023-03-18T19:06:04.801Z,40.50
2023-03-18T19:08:36.044Z,54.03
2023-03-18T19:13:36.286Z,41.63
2023-03-18T19:16:05.638Z,54.92
2023-03-18T19:18:39.170Z,45.25
2023-03-18T19:21:06.057Z,41.25
2023-03-18T19:23:34.652Z,40.63
2023-03-18T19:26:03.993Z,39.97
2023-03-18T19:28:57.005Z,43.13
2023-03-18T19:31:26.786Z,41.28
2023-03-18T19:33:53.931Z,44.15
2023-03-18T19:36:40.058Z,42.45
2023-03-18T19:39:15.115Z,39.65
2023-03-18T19:41:42.124Z,47.05
2023-03-18T19:44:34.867Z,54.80
2023-03-18T19:47:01.496Z,33.10
2023-03-18T19:49:35.846Z,37.58
2023-03-18T19:52:24.112Z,41.45
2023-03-18T19:54:51.935Z,39.00
2023-03-18T19:57:24.462Z,40.13
2023-03-18T19:59:53.363Z,40.88
2023-03-18T20:02:28.803Z,38.30
2023-03-18T20:04:57.589Z,34.35
2023-03-18T20:07:26.403Z,38.75
2023-03-18T20:09:53.850Z,31.70
2023-03-18T20:12:20.411Z,37.17
2023-03-18T20:14:47.058Z,38.92
2023-03-18T20:17:37.686Z,40.90
2023-03-18T20:20:07.294Z,40.40
2023-03-18T20:22:37.308Z,40.80
2023-03-18T20:25:05.594Z,33.95
2023-03-18T20:27:32.469Z,41.13
2023-03-18T20:29:59.047Z,53.47
2023-03-18T20:32:26.154Z,44.13
2023-03-18T20:34:52.615Z,41.15
2023-03-18T20:37:34.570Z,44.45
2023-03-18T20:40:03.874Z,41.05
2023-03-18T20:42:30.413Z,42.13
2023-03-18T20:44:56.854Z,34.47
2023-03-18T20:47:23.373Z,36.15
2023-03-18T20:49:49.920Z,38.90
2023-03-18T20:52:24.439Z,45.97
2023-03-18T20:54:50.953Z,43.47
2023-03-18T20:57:18.830Z,57.35
2023-03-18T20:59:46.607Z,42.45
2023-03-18T21:02:25.119Z,41.35
2023-03-18T21:04:51.540Z,38.67
2023-03-18T21:07:18.053Z,44.28
2023-03-18T21:09:45.001Z,35.40
2023-03-18T21:12:16.943Z,42.50
2023-03-18T21:14:43.468Z,40.70
2023-03-18T21:17:21.330Z,35.97
2023-03-18T21:19:49.198Z,35.97
2023-03-18T21:22:21.830Z,34.45
2023-03-18T21:24:49.287Z,33.70
2023-03-18T21:27:21.694Z,36.28
2023-03-18T21:29:49.636Z,34.88
2023-03-18T21:32:19.973Z,33.42
2023-03-18T21:34:46.591Z,37.78
2023-03-18T21:37:16.424Z,36.92
2023-03-18T21:39:43.348Z,47.63
2023-03-18T21:42:30.475Z,48.70
2023-03-18T21:44:59.606Z,34.63
2023-03-18T21:47:27.068Z,33.92
2023-03-18T21:49:53.917Z,33.10
2023-03-18T21:52:32.520Z,33.03
2023-03-18T21:55:01.060Z,35.42
2023-03-18T21:57:29.142Z,37.03
2023-03-18T21:59:56.236Z,54.67
2023-03-18T22:02:29.196Z,40.72
2023-03-18T22:05:00.259Z,40.92
2023-03-18T22:07:31.231Z,46.22
2023-03-18T22:09:58.518Z,34.88
2023-03-18T22:12:28.298Z,31.52
2023-03-18T22:14:55.568Z,36.17
2023-03-18T22:17:31.631Z,32.75
2023-03-18T22:19:59.910Z,37.08
2023-03-18T22:22:34.685Z,30.80
2023-03-18T22:25:01.147Z,30.67
2023-03-18T22:27:29.683Z,38.30
2023-03-18T22:29:58.664Z,41.25
2023-03-18T22:32:40.846Z,33.15
2023-03-18T22:35:28.028Z,42.45
2023-03-18T22:37:56.005Z,33.95
2023-03-18T22:40:28.065Z,40.25
2023-03-18T22:43:00.315Z,43.40
2023-03-18T22:45:34.114Z,39.75
2023-03-18T22:48:02.341Z,42.97
2023-03-18T22:50:32.130Z,55.08
2023-03-18T22:53:05.408Z,52.58
2023-03-18T22:55:35.630Z,49.70
2023-03-18T22:58:02.256Z,43.42
2023-03-18T23:00:40.501Z,36.33
2023-03-18T23:03:13.340Z,45.88
2023-03-18T23:05:39.978Z,42.83
2023-03-18T23:08:06.558Z,46.28
2023-03-18T23:10:33.275Z,48.38
2023-03-18T23:12:59.781Z,41.70
2023-03-18T23:15:26.271Z,44.22
2023-03-18T23:17:52.705Z,45.75
2023-03-18T23:20:19.371Z,45.88
2023-03-18T23:22:46.163Z,44.03
2023-03-18T23:25:16.515Z,44.35
2023-03-18T23:27:43.683Z,41.50
2023-03-18T23:30:12.423Z,37.25
2023-03-18T23:32:40.184Z,38.78
2023-03-18T23:35:08.624Z,46.38
2023-03-18T23:37:35.379Z,41.17
2023-03-18T23:40:02.039Z,40.17
2023-03-18T23:42:28.490Z,42.15
2023-03-18T23:44:54.965Z,43.30
2023-03-18T23:47:21.530Z,40.92
2023-03-18T23:49:48.037Z,49.83
2023-03-18T23:52:15.962Z,41.75
2023-03-18T23:54:42.870Z,37.17
2023-03-18T23:57:11.154Z,43.40
2023-03-18T23:59:38.295Z,40.47
